sensor_id;sensor_type;location;lat;lon;timestamp;P1;durP1;ratioP1;P2;durP2;ratioP2
70985;SDS011;58645;43.068;25.610;2023-02-28T00:00:20;21.67;;;10.48;;
70985;SDS011;58645;43.068;25.610;2023-02-28T00:02:47;26.08;;;12.35;;
70985;SDS011;58645;43.068;25.610;2023-02-28T00:05:14;17.48;;;9.75;;
70985;SDS011;58645;43.068;25.610;2023-02-28T00:07:42;16.10;;;9.25;;
70985;SDS011;58645;43.068;25.610;2023-02-28T00:10:09;17.73;;;9.32;;
70985;SDS011;58645;43.068;25.610;2023-02-28T00:12:37;18.63;;;9.77;;
70985;SDS011;58645;43.068;25.610;2023-02-28T00:15:07;20.60;;;11.10;;
70985;SDS011;58645;43.068;25.610;2023-02-28T00:17:34;25.00;;;12.77;;
70985;SDS011;58645;43.068;25.610;2023-02-28T00:20:00;23.55;;;11.70;;
70985;SDS011;58645;43.068;25.610;2023-02-28T00:22:26;22.50;;;11.75;;
70985;SDS011;58645;43.068;25.610;2023-02-28T00:24:52;22.27;;;12.10;;
70985;SDS011;58645;43.068;25.610;2023-02-28T00:27:18;22.55;;;12.48;;
70985;SDS011;58645;43.068;25.610;2023-02-28T00:29:45;22.90;;;11.02;;
70985;SDS011;58645;43.068;25.610;2023-02-28T00:32:11;27.88;;;12.27;;
70985;SDS011;58645;43.068;25.610;2023-02-28T00:34:38;19.52;;;11.02;;
70985;SDS011;58645;43.068;25.610;2023-02-28T00:37:04;23.92;;;12.70;;
70985;SDS011;58645;43.068;25.610;2023-02-28T00:39:32;21.00;;;12.05;;
70985;SDS011;58645;43.068;25.610;2023-02-28T00:42:00;23.48;;;12.15;;
70985;SDS011;58645;43.068;25.610;2023-02-28T00:44:25;19.75;;;11.23;;
70985;SDS011;58645;43.068;25.610;2023-02-28T00:46:51;18.88;;;10.73;;
70985;SDS011;58645;43.068;25.610;2023-02-28T00:49:19;20.35;;;11.15;;
70985;SDS011;58645;43.068;25.610;2023-02-28T00:51:45;19.58;;;10.82;;
70985;SDS011;58645;43.068;25.610;2023-02-28T00:54:11;19.63;;;10.82;;
70985;SDS011;58645;43.068;25.610;2023-02-28T00:56:37;19.58;;;11.38;;
70985;SDS011;58645;43.068;25.610;2023-02-28T00:59:02;21.38;;;11.90;;
70985;SDS011;58645;43.068;25.610;2023-02-28T01:01:28;18.42;;;10.80;;
70985;SDS011;58645;43.068;25.610;2023-02-28T01:03:54;22.15;;;11.35;;
70985;SDS011;58645;43.068;25.610;2023-02-28T01:06:20;21.08;;;12.85;;
70985;SDS011;58645;43.068;25.610;2023-02-28T01:08:46;22.67;;;11.68;;
70985;SDS011;58645;43.068;25.610;2023-02-28T01:11:12;22.60;;;11.55;;
70985;SDS011;58645;43.068;25.610;2023-02-28T01:13:39;19.67;;;11.80;;
70985;SDS011;58645;43.068;25.610;2023-02-28T01:16:06;27.48;;;12.70;;
70985;SDS011;58645;43.068;25.610;2023-02-28T01:18:32;22.20;;;12.45;;
70985;SDS011;58645;43.068;25.610;2023-02-28T01:20:57;22.35;;;11.77;;
70985;SDS011;58645;43.068;25.610;2023-02-28T01:23:27;22.77;;;11.90;;
70985;SDS011;58645;43.068;25.610;2023-02-28T01:25:53;23.42;;;12.27;;
70985;SDS011;58645;43.068;25.610;2023-02-28T01:28:19;20.52;;;11.38;;
70985;SDS011;58645;43.068;25.610;2023-02-28T01:30:48;23.55;;;11.35;;
70985;SDS011;58645;43.068;25.610;2023-02-28T01:33:15;20.85;;;11.50;;
70985;SDS011;58645;43.068;25.610;2023-02-28T01:35:40;25.13;;;13.95;;
70985;SDS011;58645;43.068;25.610;2023-02-28T01:38:06;27.08;;;15.23;;
70985;SDS011;58645;43.068;25.610;2023-02-28T01:40:32;22.70;;;13.05;;
70985;SDS011;58645;43.068;25.610;2023-02-28T01:42:58;22.20;;;12.07;;
70985;SDS011;58645;43.068;25.610;2023-02-28T01:45:25;20.08;;;10.68;;
70985;SDS011;58645;43.068;25.610;2023-02-28T01:48:03;21.02;;;11.05;;
70985;SDS011;58645;43.068;25.610;2023-02-28T01:50:34;20.73;;;10.88;;
70985;SDS011;58645;43.068;25.610;2023-02-28T01:53:04;22.15;;;11.40;;
70985;SDS011;58645;43.068;25.610;2023-02-28T01:55:32;22.75;;;11.07;;
70985;SDS011;58645;43.068;25.610;2023-02-28T01:58:00;19.30;;;10.43;;
70985;SDS011;58645;43.068;25.610;2023-02-28T02:00:27;20.92;;;10.85;;
70985;SDS011;58645;43.068;25.610;2023-02-28T02:02:59;22.00;;;10.25;;
70985;SDS011;58645;43.068;25.610;2023-02-28T02:05:29;22.13;;;10.63;;
70985;SDS011;58645;43.068;25.610;2023-02-28T02:08:04;18.00;;;9.07;;
70985;SDS011;58645;43.068;25.610;2023-02-28T02:10:38;19.15;;;9.73;;
70985;SDS011;58645;43.068;25.610;2023-02-28T02:21:35;19.58;;;10.13;;
70985;SDS011;58645;43.068;25.610;2023-02-28T02:39:07;19.00;;;9.50;;
70985;SDS011;58645;43.068;25.610;2023-02-28T02:41:51;19.55;;;9.98;;
70985;SDS011;58645;43.068;25.610;2023-02-28T02:44:30;20.77;;;9.85;;
70985;SDS011;58645;43.068;25.610;2023-02-28T02:47:15;19.80;;;9.13;;
70985;SDS011;58645;43.068;25.610;2023-02-28T02:49:46;19.60;;;9.75;;
70985;SDS011;58645;43.068;25.610;2023-02-28T02:52:18;18.17;;;9.23;;
70985;SDS011;58645;43.068;25.610;2023-02-28T02:54:48;18.42;;;9.45;;
70985;SDS011;58645;43.068;25.610;2023-02-28T02:57:32;17.95;;;9.07;;
70985;SDS011;58645;43.068;25.610;2023-02-28T03:00:03;20.17;;;9.63;;
70985;SDS011;58645;43.068;25.610;2023-02-28T03:02:34;19.20;;;9.15;;
70985;SDS011;58645;43.068;25.610;2023-02-28T03:05:02;16.30;;;8.60;;
70985;SDS011;58645;43.068;25.610;2023-02-28T03:07:33;15.55;;;7.80;;
70985;SDS011;58645;43.068;25.610;2023-02-28T03:09:59;15.43;;;8.35;;
70985;SDS011;58645;43.068;25.610;2023-02-28T03:12:30;15.13;;;7.47;;
70985;SDS011;58645;43.068;25.610;2023-02-28T03:15:11;14.88;;;7.20;;
70985;SDS011;58645;43.068;25.610;2023-02-28T03:18:06;15.07;;;7.78;;
70985;SDS011;58645;43.068;25.610;2023-02-28T03:20:41;17.77;;;9.32;;
70985;SDS011;58645;43.068;25.610;2023-02-28T03:23:45;13.38;;;6.68;;
70985;SDS011;58645;43.068;25.610;2023-02-28T03:26:25;15.90;;;7.97;;
70985;SDS011;58645;43.068;25.610;2023-02-28T03:31:29;15.68;;;8.50;;
70985;SDS011;58645;43.068;25.610;2023-02-28T03:36:37;16.70;;;7.85;;
70985;SDS011;58645;43.068;25.610;2023-02-28T03:39:09;16.02;;;7.30;;
70985;SDS011;58645;43.068;25.610;2023-02-28T03:41:45;11.88;;;6.03;;
70985;SDS011;58645;43.068;25.610;2023-02-28T03:44:59;14.10;;;6.80;;
70985;SDS011;58645;43.068;25.610;2023-02-28T03:47:12;12.13;;;5.70;;
70985;SDS011;58645;43.068;25.610;2023-02-28T03:49:59;13.82;;;7.07;;
70985;SDS011;58645;43.068;25.610;2023-02-28T03:52:49;18.55;;;8.93;;
70985;SDS011;58645;43.068;25.610;2023-02-28T03:55:18;17.00;;;7.80;;
70985;SDS011;58645;43.068;25.610;2023-02-28T04:00:31;16.33;;;7.80;;
70985;SDS011;58645;43.068;25.610;2023-02-28T04:03:03;18.27;;;8.68;;
70985;SDS011;58645;43.068;25.610;2023-02-28T04:05:29;14.75;;;7.95;;
70985;SDS011;58645;43.068;25.610;2023-02-28T04:10:29;14.77;;;6.78;;
70985;SDS011;58645;43.068;25.610;2023-02-28T04:12:55;15.82;;;7.90;;
70985;SDS011;58645;43.068;25.610;2023-02-28T04:15:20;15.43;;;7.20;;
70985;SDS011;58645;43.068;25.610;2023-02-28T04:17:48;15.13;;;7.30;;
70985;SDS011;58645;43.068;25.610;2023-02-28T04:20:13;13.77;;;7.03;;
70985;SDS011;58645;43.068;25.610;2023-02-28T04:22:39;14.70;;;7.85;;
70985;SDS011;58645;43.068;25.610;2023-02-28T04:25:05;13.73;;;6.65;;
70985;SDS011;58645;43.068;25.610;2023-02-28T04:27:31;13.52;;;6.75;;
70985;SDS011;58645;43.068;25.610;2023-02-28T04:29:57;13.23;;;5.90;;
70985;SDS011;58645;43.068;25.610;2023-02-28T04:32:23;14.07;;;6.60;;
70985;SDS011;58645;43.068;25.610;2023-02-28T04:34:49;13.32;;;6.68;;
70985;SDS011;58645;43.068;25.610;2023-02-28T04:37:14;12.10;;;6.15;;
70985;SDS011;58645;43.068;25.610;2023-02-28T04:39:40;10.93;;;5.95;;
70985;SDS011;58645;43.068;25.610;2023-02-28T04:42:07;12.52;;;5.70;;
70985;SDS011;58645;43.068;25.610;2023-02-28T04:44:33;13.25;;;6.28;;
70985;SDS011;58645;43.068;25.610;2023-02-28T04:46:59;16.15;;;8.57;;
70985;SDS011;58645;43.068;25.610;2023-02-28T04:49:25;16.98;;;7.55;;
70985;SDS011;58645;43.068;25.610;2023-02-28T04:51:51;16.10;;;7.13;;
70985;SDS011;58645;43.068;25.610;2023-02-28T04:54:17;14.10;;;6.55;;
70985;SDS011;58645;43.068;25.610;2023-02-28T04:56:44;12.07;;;6.47;;
70985;SDS011;58645;43.068;25.610;2023-02-28T04:59:10;21.20;;;9.02;;
70985;SDS011;58645;43.068;25.610;2023-02-28T05:01:36;14.73;;;6.82;;
70985;SDS011;58645;43.068;25.610;2023-02-28T05:04:03;13.00;;;6.18;;
70985;SDS011;58645;43.068;25.610;2023-02-28T05:06:31;11.75;;;5.60;;
70985;SDS011;58645;43.068;25.610;2023-02-28T05:08:58;13.75;;;7.00;;
70985;SDS011;58645;43.068;25.610;2023-02-28T05:11:25;12.02;;;6.07;;
70985;SDS011;58645;43.068;25.610;2023-02-28T05:13:54;12.07;;;5.80;;
70985;SDS011;58645;43.068;25.610;2023-02-28T05:16:20;12.27;;;6.38;;
70985;SDS011;58645;43.068;25.610;2023-02-28T05:18:46;13.05;;;7.13;;
70985;SDS011;58645;43.068;25.610;2023-02-28T05:21:20;11.98;;;5.63;;
70985;SDS011;58645;43.068;25.610;2023-02-28T05:23:51;14.15;;;6.00;;
70985;SDS011;58645;43.068;25.610;2023-02-28T05:31:12;12.23;;;5.70;;
70985;SDS011;58645;43.068;25.610;2023-02-28T05:33:38;14.65;;;6.10;;
70985;SDS011;58645;43.068;25.610;2023-02-28T05:36:05;14.68;;;6.40;;
70985;SDS011;58645;43.068;25.610;2023-02-28T05:38:31;11.20;;;5.40;;
70985;SDS011;58645;43.068;25.610;2023-02-28T05:40:57;12.95;;;6.43;;
70985;SDS011;58645;43.068;25.610;2023-02-28T05:43:23;12.02;;;6.07;;
70985;SDS011;58645;43.068;25.610;2023-02-28T05:45:49;13.75;;;6.38;;
70985;SDS011;58645;43.068;25.610;2023-02-28T05:48:14;15.70;;;7.13;;
70985;SDS011;58645;43.068;25.610;2023-02-28T05:50:40;12.68;;;6.68;;
70985;SDS011;58645;43.068;25.610;2023-02-28T05:53:07;13.10;;;6.32;;
70985;SDS011;58645;43.068;25.610;2023-02-28T05:55:33;13.10;;;6.32;;
70985;SDS011;58645;43.068;25.610;2023-02-28T05:58:01;12.05;;;6.03;;
70985;SDS011;58645;43.068;25.610;2023-02-28T06:00:27;11.52;;;6.22;;
70985;SDS011;58645;43.068;25.610;2023-02-28T06:03:06;14.07;;;6.72;;
70985;SDS011;58645;43.068;25.610;2023-02-28T06:05:32;12.93;;;5.70;;
70985;SDS011;58645;43.068;25.610;2023-02-28T06:07:58;12.50;;;5.93;;
70985;SDS011;58645;43.068;25.610;2023-02-28T06:10:23;15.15;;;6.32;;
70985;SDS011;58645;43.068;25.610;2023-02-28T06:12:49;11.30;;;5.88;;
70985;SDS011;58645;43.068;25.610;2023-02-28T06:15:15;16.35;;;6.13;;
70985;SDS011;58645;43.068;25.610;2023-02-28T06:17:42;11.88;;;6.10;;
70985;SDS011;58645;43.068;25.610;2023-02-28T06:22:35;13.73;;;6.30;;
70985;SDS011;58645;43.068;25.610;2023-02-28T06:25:02;11.30;;;6.35;;
70985;SDS011;58645;43.068;25.610;2023-02-28T06:27:30;12.95;;;6.53;;
70985;SDS011;58645;43.068;25.610;2023-02-28T06:29:56;12.05;;;6.05;;
70985;SDS011;58645;43.068;25.610;2023-02-28T06:32:22;10.45;;;5.18;;
70985;SDS011;58645;43.068;25.610;2023-02-28T06:34:48;13.25;;;5.82;;
70985;SDS011;58645;43.068;25.610;2023-02-28T06:39:41;10.70;;;5.80;;
70985;SDS011;58645;43.068;25.610;2023-02-28T06:42:07;11.00;;;5.38;;
70985;SDS011;58645;43.068;25.610;2023-02-28T06:44:36;10.93;;;5.55;;
70985;SDS011;58645;43.068;25.610;2023-02-28T06:47:08;11.63;;;6.13;;
70985;SDS011;58645;43.068;25.610;2023-02-28T06:49:43;11.40;;;5.80;;
70985;SDS011;58645;43.068;25.610;2023-02-28T06:52:10;12.63;;;5.65;;
70985;SDS011;58645;43.068;25.610;2023-02-28T06:54:36;13.93;;;6.20;;
70985;SDS011;58645;43.068;25.610;2023-02-28T06:57:02;10.93;;;5.82;;
70985;SDS011;58645;43.068;25.610;2023-02-28T06:59:30;12.00;;;5.82;;
70985;SDS011;58645;43.068;25.610;2023-02-28T07:01:56;10.02;;;5.63;;
70985;SDS011;58645;43.068;25.610;2023-02-28T07:04:22;9.73;;;5.07;;
70985;SDS011;58645;43.068;25.610;2023-02-28T07:06:48;12.73;;;5.35;;
70985;SDS011;58645;43.068;25.610;2023-02-28T07:09:14;9.02;;;4.72;;
70985;SDS011;58645;43.068;25.610;2023-02-28T07:11:40;10.23;;;5.15;;
70985;SDS011;58645;43.068;25.610;2023-02-28T07:14:07;10.75;;;5.20;;
70985;SDS011;58645;43.068;25.610;2023-02-28T07:16:34;10.07;;;4.63;;
70985;SDS011;58645;43.068;25.610;2023-02-28T07:21:26;8.93;;;4.53;;
70985;SDS011;58645;43.068;25.610;2023-02-28T07:23:53;11.02;;;4.88;;
70985;SDS011;58645;43.068;25.610;2023-02-28T07:26:31;8.25;;;4.25;;
70985;SDS011;58645;43.068;25.610;2023-02-28T07:28:59;8.02;;;4.10;;
70985;SDS011;58645;43.068;25.610;2023-02-28T07:31:25;9.02;;;4.45;;
70985;SDS011;58645;43.068;25.610;2023-02-28T07:33:51;12.15;;;4.53;;
70985;SDS011;58645;43.068;25.610;2023-02-28T07:36:19;11.18;;;4.78;;
70985;SDS011;58645;43.068;25.610;2023-02-28T07:38:46;8.93;;;4.07;;
70985;SDS011;58645;43.068;25.610;2023-02-28T07:41:19;9.40;;;4.20;;
70985;SDS011;58645;43.068;25.610;2023-02-28T07:43:46;9.25;;;4.50;;
70985;SDS011;58645;43.068;25.610;2023-02-28T07:46:14;10.13;;;4.93;;
70985;SDS011;58645;43.068;25.610;2023-02-28T07:48:41;9.20;;;4.15;;
70985;SDS011;58645;43.068;25.610;2023-02-28T07:51:09;8.48;;;4.40;;
70985;SDS011;58645;43.068;25.610;2023-02-28T07:53:46;7.25;;;4.20;;
70985;SDS011;58645;43.068;25.610;2023-02-28T07:56:12;9.43;;;3.78;;
70985;SDS011;58645;43.068;25.610;2023-02-28T07:58:38;8.48;;;4.72;;
70985;SDS011;58645;43.068;25.610;2023-02-28T08:01:07;13.52;;;4.38;;
70985;SDS011;58645;43.068;25.610;2023-02-28T08:03:35;8.73;;;4.45;;
70985;SDS011;58645;43.068;25.610;2023-02-28T08:06:05;9.70;;;4.70;;
70985;SDS011;58645;43.068;25.610;2023-02-28T08:08:32;8.98;;;4.57;;
70985;SDS011;58645;43.068;25.610;2023-02-28T08:11:02;8.93;;;4.65;;
70985;SDS011;58645;43.068;25.610;2023-02-28T08:13:29;9.50;;;4.40;;
70985;SDS011;58645;43.068;25.610;2023-02-28T08:15:58;9.65;;;4.63;;
70985;SDS011;58645;43.068;25.610;2023-02-28T08:18:27;12.00;;;4.80;;
70985;SDS011;58645;43.068;25.610;2023-02-28T08:20:54;13.90;;;5.53;;
70985;SDS011;58645;43.068;25.610;2023-02-28T08:23:20;10.23;;;5.53;;
70985;SDS011;58645;43.068;25.610;2023-02-28T08:25:55;10.75;;;5.97;;
70985;SDS011;58645;43.068;25.610;2023-02-28T08:28:21;13.38;;;6.68;;
70985;SDS011;58645;43.068;25.610;2023-02-28T08:30:47;14.90;;;6.97;;
70985;SDS011;58645;43.068;25.610;2023-02-28T08:35:43;14.93;;;7.13;;
70985;SDS011;58645;43.068;25.610;2023-02-28T08:38:09;13.80;;;6.95;;
70985;SDS011;58645;43.068;25.610;2023-02-28T08:40:34;12.93;;;7.53;;
70985;SDS011;58645;43.068;25.610;2023-02-28T08:43:09;12.02;;;7.32;;
70985;SDS011;58645;43.068;25.610;2023-02-28T08:45:35;13.57;;;7.30;;
70985;SDS011;58645;43.068;25.610;2023-02-28T08:48:01;15.70;;;7.88;;
70985;SDS011;58645;43.068;25.610;2023-02-28T08:50:27;16.55;;;7.50;;
70985;SDS011;58645;43.068;25.610;2023-02-28T08:52:53;12.23;;;7.32;;
70985;SDS011;58645;43.068;25.610;2023-02-28T08:55:20;12.60;;;7.65;;
70985;SDS011;58645;43.068;25.610;2023-02-28T08:57:46;15.52;;;7.78;;
70985;SDS011;58645;43.068;25.610;2023-02-28T09:00:12;13.18;;;7.32;;
70985;SDS011;58645;43.068;25.610;2023-02-28T09:02:39;12.55;;;7.30;;
70985;SDS011;58645;43.068;25.610;2023-02-28T09:05:05;13.90;;;7.80;;
70985;SDS011;58645;43.068;25.610;2023-02-28T09:07:32;11.32;;;6.60;;
70985;SDS011;58645;43.068;25.610;2023-02-28T09:09:57;10.85;;;6.63;;
70985;SDS011;58645;43.068;25.610;2023-02-28T09:12:24;12.68;;;7.07;;
70985;SDS011;58645;43.068;25.610;2023-02-28T09:14:51;13.50;;;8.60;;
70985;SDS011;58645;43.068;25.610;2023-02-28T09:17:18;12.95;;;7.72;;
70985;SDS011;58645;43.068;25.610;2023-02-28T09:22:10;13.48;;;6.38;;
70985;SDS011;58645;43.068;25.610;2023-02-28T09:24:36;14.57;;;6.00;;
70985;SDS011;58645;43.068;25.610;2023-02-28T09:29:29;10.57;;;5.35;;
70985;SDS011;58645;43.068;25.610;2023-02-28T09:31:56;13.07;;;5.78;;
70985;SDS011;58645;43.068;25.610;2023-02-28T09:34:26;10.52;;;5.47;;
70985;SDS011;58645;43.068;25.610;2023-02-28T09:37:10;11.85;;;6.10;;
70985;SDS011;58645;43.068;25.610;2023-02-28T09:39:36;12.18;;;5.85;;
70985;SDS011;58645;43.068;25.610;2023-02-28T09:42:02;9.05;;;5.10;;
70985;SDS011;58645;43.068;25.610;2023-02-28T09:44:32;10.13;;;5.43;;
70985;SDS011;58645;43.068;25.610;2023-02-28T09:49:40;9.93;;;4.82;;
70985;SDS011;58645;43.068;25.610;2023-02-28T09:52:16;12.43;;;5.28;;
70985;SDS011;58645;43.068;25.610;2023-02-28T09:54:44;12.98;;;5.50;;
70985;SDS011;58645;43.068;25.610;2023-02-28T09:59:51;13.30;;;5.30;;
70985;SDS011;58645;43.068;25.610;2023-02-28T10:02:38;10.18;;;5.20;;
70985;SDS011;58645;43.068;25.610;2023-02-28T10:05:12;9.27;;;5.22;;
70985;SDS011;58645;43.068;25.610;2023-02-28T10:11:02;8.90;;;5.47;;
70985;SDS011;58645;43.068;25.610;2023-02-28T10:13:31;9.63;;;5.53;;
70985;SDS011;58645;43.068;25.610;2023-02-28T10:16:13;10.85;;;5.68;;
70985;SDS011;58645;43.068;25.610;2023-02-28T10:21:21;11.57;;;6.85;;
70985;SDS011;58645;43.068;25.610;2023-02-28T10:23:48;10.50;;;5.72;;
70985;SDS011;58645;43.068;25.610;2023-02-28T10:26:18;10.15;;;6.30;;
70985;SDS011;58645;43.068;25.610;2023-02-28T10:28:44;11.80;;;5.63;;
70985;SDS011;58645;43.068;25.610;2023-02-28T10:31:15;11.27;;;5.78;;
70985;SDS011;58645;43.068;25.610;2023-02-28T10:33:43;11.48;;;5.35;;
70985;SDS011;58645;43.068;25.610;2023-02-28T10:36:13;11.20;;;6.05;;
70985;SDS011;58645;43.068;25.610;2023-02-28T10:38:44;15.85;;;5.70;;
70985;SDS011;58645;43.068;25.610;2023-02-28T10:41:15;12.75;;;5.78;;
70985;SDS011;58645;43.068;25.610;2023-02-28T10:43:51;10.07;;;4.68;;
70985;SDS011;58645;43.068;25.610;2023-02-28T10:46:18;9.60;;;4.30;;
70985;SDS011;58645;43.068;25.610;2023-02-28T10:49:01;8.52;;;4.53;;
70985;SDS011;58645;43.068;25.610;2023-02-28T10:51:36;11.32;;;5.43;;
70985;SDS011;58645;43.068;25.610;2023-02-28T10:54:03;11.93;;;6.25;;
70985;SDS011;58645;43.068;25.610;2023-02-28T10:56:30;12.60;;;6.80;;
70985;SDS011;58645;43.068;25.610;2023-02-28T11:01:35;16.15;;;8.93;;
70985;SDS011;58645;43.068;25.610;2023-02-28T11:04:02;11.80;;;6.55;;
70985;SDS011;58645;43.068;25.610;2023-02-28T11:06:32;11.95;;;7.00;;
70985;SDS011;58645;43.068;25.610;2023-02-28T11:09:03;12.18;;;6.80;;
70985;SDS011;58645;43.068;25.610;2023-02-28T11:11:42;12.13;;;6.38;;
70985;SDS011;58645;43.068;25.610;2023-02-28T11:14:48;13.90;;;6.53;;
70985;SDS011;58645;43.068;25.610;2023-02-28T11:17:14;11.82;;;6.43;;
70985;SDS011;58645;43.068;25.610;2023-02-28T11:19:46;12.75;;;6.72;;
70985;SDS011;58645;43.068;25.610;2023-02-28T11:22:23;11.43;;;6.32;;
70985;SDS011;58645;43.068;25.610;2023-02-28T11:24:53;13.13;;;6.38;;
70985;SDS011;58645;43.068;25.610;2023-02-28T11:29:54;12.10;;;6.93;;
70985;SDS011;58645;43.068;25.610;2023-02-28T11:32:37;13.55;;;6.63;;
70985;SDS011;58645;43.068;25.610;2023-02-28T11:35:40;9.30;;;5.78;;
70985;SDS011;58645;43.068;25.610;2023-02-28T11:38:31;14.88;;;6.68;;
70985;SDS011;58645;43.068;25.610;2023-02-28T11:49:30;10.90;;;6.20;;
70985;SDS011;58645;43.068;25.610;2023-02-28T11:55:13;14.98;;;6.63;;
70985;SDS011;58645;43.068;25.610;2023-02-28T12:00:49;15.77;;;7.22;;
70985;SDS011;58645;43.068;25.610;2023-02-28T12:03:36;16.42;;;8.02;;
70985;SDS011;58645;43.068;25.610;2023-02-28T12:09:28;17.83;;;7.13;;
70985;SDS011;58645;43.068;25.610;2023-02-28T12:14:53;13.05;;;7.63;;
70985;SDS011;58645;43.068;25.610;2023-02-28T12:25:50;12.48;;;7.00;;
70985;SDS011;58645;43.068;25.610;2023-02-28T12:28:23;11.90;;;6.97;;
70985;SDS011;58645;43.068;25.610;2023-02-28T12:30:55;15.50;;;7.00;;
70985;SDS011;58645;43.068;25.610;2023-02-28T12:33:37;16.42;;;8.65;;
70985;SDS011;58645;43.068;25.610;2023-02-28T12:36:13;15.75;;;7.18;;
70985;SDS011;58645;43.068;25.610;2023-02-28T12:38:48;14.95;;;8.52;;
70985;SDS011;58645;43.068;25.610;2023-02-28T12:44:20;16.67;;;7.10;;
70985;SDS011;58645;43.068;25.610;2023-02-28T12:46:58;14.63;;;7.97;;
70985;SDS011;58645;43.068;25.610;2023-02-28T12:49:28;16.52;;;8.80;;
70985;SDS011;58645;43.068;25.610;2023-02-28T12:51:59;14.82;;;8.57;;
70985;SDS011;58645;43.068;25.610;2023-02-28T12:54:35;18.90;;;8.45;;
70985;SDS011;58645;43.068;25.610;2023-02-28T12:59:45;17.50;;;9.40;;
70985;SDS011;58645;43.068;25.610;2023-02-28T13:10:45;15.45;;;8.65;;
70985;SDS011;58645;43.068;25.610;2023-02-28T13:13:16;16.38;;;9.27;;
70985;SDS011;58645;43.068;25.610;2023-02-28T13:16:04;16.33;;;8.77;;
70985;SDS011;58645;43.068;25.610;2023-02-28T13:21:28;19.52;;;9.25;;
70985;SDS011;58645;43.068;25.610;2023-02-28T13:24:02;17.95;;;9.43;;
70985;SDS011;58645;43.068;25.610;2023-02-28T13:29:27;18.73;;;9.23;;
70985;SDS011;58645;43.068;25.610;2023-02-28T13:34:32;20.73;;;9.82;;
70985;SDS011;58645;43.068;25.610;2023-02-28T13:39:53;24.65;;;12.15;;
70985;SDS011;58645;43.068;25.610;2023-02-28T13:58:53;22.08;;;10.23;;
70985;SDS011;58645;43.068;25.610;2023-02-28T14:06:59;23.60;;;10.45;;
70985;SDS011;58645;43.068;25.610;2023-02-28T14:11:57;22.67;;;10.43;;
70985;SDS011;58645;43.068;25.610;2023-02-28T14:17:12;22.90;;;11.02;;
70985;SDS011;58645;43.068;25.610;2023-02-28T14:19:43;26.90;;;12.55;;
70985;SDS011;58645;43.068;25.610;2023-02-28T14:36:21;21.50;;;10.75;;
70985;SDS011;58645;43.068;25.610;2023-02-28T14:38:53;24.70;;;11.73;;
70985;SDS011;58645;43.068;25.610;2023-02-28T14:41:30;25.67;;;11.85;;
70985;SDS011;58645;43.068;25.610;2023-02-28T14:44:00;23.10;;;10.35;;
70985;SDS011;58645;43.068;25.610;2023-02-28T14:46:38;22.13;;;10.63;;
70985;SDS011;58645;43.068;25.610;2023-02-28T14:49:07;25.08;;;11.77;;
70985;SDS011;58645;43.068;25.610;2023-02-28T14:51:43;24.48;;;13.00;;
70985;SDS011;58645;43.068;25.610;2023-02-28T14:54:12;27.83;;;11.90;;
70985;SDS011;58645;43.068;25.610;2023-02-28T14:56:40;23.83;;;12.48;;
70985;SDS011;58645;43.068;25.610;2023-02-28T14:59:22;24.67;;;11.52;;
70985;SDS011;58645;43.068;25.610;2023-02-28T15:04:52;21.30;;;10.13;;
70985;SDS011;58645;43.068;25.610;2023-02-28T15:07:22;23.52;;;11.20;;
70985;SDS011;58645;43.068;25.610;2023-02-28T15:12:39;18.45;;;9.25;;
70985;SDS011;58645;43.068;25.610;2023-02-28T15:15:06;23.85;;;11.70;;
70985;SDS011;58645;43.068;25.610;2023-02-28T15:17:39;25.23;;;11.80;;
70985;SDS011;58645;43.068;25.610;2023-02-28T15:20:10;18.65;;;9.75;;
70985;SDS011;58645;43.068;25.610;2023-02-28T15:22:38;17.52;;;9.32;;
70985;SDS011;58645;43.068;25.610;2023-02-28T15:25:05;16.10;;;8.43;;
70985;SDS011;58645;43.068;25.610;2023-02-28T15:27:33;17.60;;;9.40;;
70985;SDS011;58645;43.068;25.610;2023-02-28T15:30:07;19.73;;;10.38;;
70985;SDS011;58645;43.068;25.610;2023-02-28T15:32:39;14.38;;;8.18;;
70985;SDS011;58645;43.068;25.610;2023-02-28T15:37:54;26.48;;;11.00;;
70985;SDS011;58645;43.068;25.610;2023-02-28T15:40:27;20.63;;;9.60;;
70985;SDS011;58645;43.068;25.610;2023-02-28T15:43:06;21.52;;;10.20;;
70985;SDS011;58645;43.068;25.610;2023-02-28T15:48:31;23.73;;;11.65;;
70985;SDS011;58645;43.068;25.610;2023-02-28T15:51:08;18.33;;;8.82;;
70985;SDS011;58645;43.068;25.610;2023-02-28T15:58:50;19.95;;;8.75;;
70985;SDS011;58645;43.068;25.610;2023-02-28T16:01:21;17.05;;;8.48;;
70985;SDS011;58645;43.068;25.610;2023-02-28T16:03:56;16.15;;;7.97;;
70985;SDS011;58645;43.068;25.610;2023-02-28T16:09:14;17.55;;;7.25;;
70985;SDS011;58645;43.068;25.610;2023-02-28T16:11:43;17.13;;;7.60;;
70985;SDS011;58645;43.068;25.610;2023-02-28T16:14:14;20.20;;;9.68;;
70985;SDS011;58645;43.068;25.610;2023-02-28T16:16:43;18.55;;;8.98;;
70985;SDS011;58645;43.068;25.610;2023-02-28T16:19:10;21.27;;;10.73;;
70985;SDS011;58645;43.068;25.610;2023-02-28T16:21:35;16.10;;;8.90;;
70985;SDS011;58645;43.068;25.610;2023-02-28T16:24:01;15.65;;;8.38;;
70985;SDS011;58645;43.068;25.610;2023-02-28T16:26:27;17.20;;;8.95;;
70985;SDS011;58645;43.068;25.610;2023-02-28T16:28:53;19.02;;;8.82;;
70985;SDS011;58645;43.068;25.610;2023-02-28T16:31:19;18.27;;;9.15;;
70985;SDS011;58645;43.068;25.610;2023-02-28T16:33:45;19.42;;;8.07;;
70985;SDS011;58645;43.068;25.610;2023-02-28T16:36:16;14.80;;;8.10;;
70985;SDS011;58645;43.068;25.610;2023-02-28T16:38:44;15.02;;;6.53;;
70985;SDS011;58645;43.068;25.610;2023-02-28T16:41:15;21.52;;;7.90;;
70985;SDS011;58645;43.068;25.610;2023-02-28T16:43:47;17.55;;;7.63;;
70985;SDS011;58645;43.068;25.610;2023-02-28T16:46:16;12.57;;;6.45;;
70985;SDS011;58645;43.068;25.610;2023-02-28T16:48:46;14.45;;;7.32;;
70985;SDS011;58645;43.068;25.610;2023-02-28T16:51:16;19.70;;;7.70;;
70985;SDS011;58645;43.068;25.610;2023-02-28T16:53:43;15.48;;;8.15;;
70985;SDS011;58645;43.068;25.610;2023-02-28T16:56:13;17.20;;;7.75;;
70985;SDS011;58645;43.068;25.610;2023-02-28T16:58:45;16.63;;;7.47;;
70985;SDS011;58645;43.068;25.610;2023-02-28T17:06:05;17.42;;;9.02;;
70985;SDS011;58645;43.068;25.610;2023-02-28T17:08:40;19.23;;;9.32;;
70985;SDS011;58645;43.068;25.610;2023-02-28T17:11:06;15.75;;;7.68;;
70985;SDS011;58645;43.068;25.610;2023-02-28T17:13:33;19.92;;;10.02;;
70985;SDS011;58645;43.068;25.610;2023-02-28T17:15:59;17.00;;;9.07;;
70985;SDS011;58645;43.068;25.610;2023-02-28T17:18:25;11.55;;;6.55;;
70985;SDS011;58645;43.068;25.610;2023-02-28T17:20:53;14.95;;;6.05;;
70985;SDS011;58645;43.068;25.610;2023-02-28T17:23:19;14.52;;;8.07;;
70985;SDS011;58645;43.068;25.610;2023-02-28T17:25:45;16.50;;;7.72;;
70985;SDS011;58645;43.068;25.610;2023-02-28T17:28:18;14.70;;;7.57;;
70985;SDS011;58645;43.068;25.610;2023-02-28T17:30:45;15.90;;;6.55;;
70985;SDS011;58645;43.068;25.610;2023-02-28T17:33:12;11.40;;;6.03;;
70985;SDS011;58645;43.068;25.610;2023-02-28T17:35:38;11.45;;;6.38;;
70985;SDS011;58645;43.068;25.610;2023-02-28T17:38:04;10.50;;;5.65;;
70985;SDS011;58645;43.068;25.610;2023-02-28T17:40:32;13.15;;;7.90;;
70985;SDS011;58645;43.068;25.610;2023-02-28T17:42:58;14.80;;;7.13;;
70985;SDS011;58645;43.068;25.610;2023-02-28T17:45:24;8.38;;;5.20;;